Diggins, Missouri
Current Conditions -  °F | °C
As of 6:52 PM on Saturday 25 Oct 2014 (Local Time) from KSGF Reporting Station
Clear Clear  
Wind Chill: 69°   Ceiling: Unl
Heat Index: 69°   Visibility: 10mi
Dew Point: 62°   Wind: 0mph
Humidity: 78%   Direction: NA
Pressure: 30.03"   Gusts: NA
Location:  37.17°N, 92.85°W
Report Text: KSGF 252352Z 00000KT 10SM CLR 21/17 A3003 RMK AO2 SLP161 T02060167 10283 20206 58001
Loading
Personal Weather Stations






























Interactive Weather Map
Tropical Storm Tracking
New forecast layout! Learn more

10-Day Weather Forecast

Advertisements
Track Severe Weather on mobile